sensor_id;sensor_type;location;lat;lon;timestamp;pressure;altitude;pressure_sealevel;temperature;humidity
40788;BME280;26497;52.494;7.546;2023-05-03T00:00:36;102290.59;;;7.17;63.63
40788;BME280;26497;52.494;7.546;2023-05-03T00:03:03;102287.72;;;7.11;63.43
40788;BME280;26497;52.494;7.546;2023-05-03T00:05:31;102285.69;;;7.03;63.10
40788;BME280;26497;52.494;7.546;2023-05-03T00:07:58;102286.88;;;7.12;63.16
40788;BME280;26497;52.494;7.546;2023-05-03T00:10:25;102293.13;;;7.15;62.73
40788;BME280;26497;52.494;7.546;2023-05-03T00:12:54;102288.72;;;7.14;62.35
40788;BME280;26497;52.494;7.546;2023-05-03T00:15:21;102284.97;;;7.07;62.95
40788;BME280;26497;52.494;7.546;2023-05-03T00:17:48;102290.59;;;7.17;62.80
40788;BME280;26497;52.494;7.546;2023-05-03T00:20:16;102291.56;;;7.19;62.34
40788;BME280;26497;52.494;7.546;2023-05-03T00:22:44;102295.47;;;7.30;61.94
40788;BME280;26497;52.494;7.546;2023-05-03T00:25:10;102287.50;;;7.27;61.84
40788;BME280;26497;52.494;7.546;2023-05-03T00:27:37;102291.94;;;7.07;62.72
40788;BME280;26497;52.494;7.546;2023-05-03T00:30:08;102289.97;;;7.01;62.76
40788;BME280;26497;52.494;7.546;2023-05-03T00:32:35;102291.88;;;7.05;62.68
40788;BME280;26497;52.494;7.546;2023-05-03T00:35:02;102294.97;;;6.95;62.88
40788;BME280;26497;52.494;7.546;2023-05-03T00:37:30;102292.94;;;6.88;62.76
40788;BME280;26497;52.494;7.546;2023-05-03T00:39:57;102301.28;;;6.79;63.03
40788;BME280;26497;52.494;7.546;2023-05-03T00:42:24;102295.03;;;6.75;63.14
40788;BME280;26497;52.494;7.546;2023-05-03T00:44:51;102299.94;;;6.68;63.23
40788;BME280;26497;52.494;7.546;2023-05-03T00:47:19;102303.66;;;6.52;63.53
40788;BME280;26497;52.494;7.546;2023-05-03T00:49:47;102299.38;;;6.54;63.81
40788;BME280;26497;52.494;7.546;2023-05-03T00:52:14;102302.97;;;6.56;63.61
40788;BME280;26497;52.494;7.546;2023-05-03T00:54:41;102294.53;;;6.42;64.08
40788;BME280;26497;52.494;7.546;2023-05-03T00:57:08;102301.91;;;6.31;64.77
40788;BME280;26497;52.494;7.546;2023-05-03T00:59:36;102296.41;;;6.25;64.83
40788;BME280;26497;52.494;7.546;2023-05-03T01:02:03;102300.28;;;6.13;64.95
40788;BME280;26497;52.494;7.546;2023-05-03T01:04:31;102294.75;;;6.07;65.50
40788;BME280;26497;52.494;7.546;2023-05-03T01:07:09;102294.06;;;6.11;65.64
40788;BME280;26497;52.494;7.546;2023-05-03T01:09:48;102300.50;;;6.00;65.73
40788;BME280;26497;52.494;7.546;2023-05-03T01:12:29;102303.84;;;5.96;66.27
40788;BME280;26497;52.494;7.546;2023-05-03T01:15:09;102291.44;;;6.11;65.84
40788;BME280;26497;52.494;7.546;2023-05-03T01:17:42;102302.69;;;6.09;65.54
40788;BME280;26497;52.494;7.546;2023-05-03T01:20:19;102309.16;;;5.97;65.56
40788;BME280;26497;52.494;7.546;2023-05-03T01:22:59;102316.81;;;5.93;65.96
40788;BME280;26497;52.494;7.546;2023-05-03T01:25:29;102324.59;;;5.91;66.35
40788;BME280;26497;52.494;7.546;2023-05-03T01:27:56;102321.09;;;5.90;66.76
40788;BME280;26497;52.494;7.546;2023-05-03T01:30:26;102318.66;;;5.95;67.07
40788;BME280;26497;52.494;7.546;2023-05-03T01:33:00;102323.53;;;6.05;67.07
40788;BME280;26497;52.494;7.546;2023-05-03T01:35:35;102309.22;;;6.18;66.03
40788;BME280;26497;52.494;7.546;2023-05-03T01:38:03;102314.59;;;6.02;65.98
40788;BME280;26497;52.494;7.546;2023-05-03T01:40:35;102314.75;;;5.85;66.42
40788;BME280;26497;52.494;7.546;2023-05-03T01:43:04;102311.44;;;5.89;66.20
40788;BME280;26497;52.494;7.546;2023-05-03T01:45:32;102310.19;;;5.81;66.52
40788;BME280;26497;52.494;7.546;2023-05-03T01:47:59;102317.22;;;5.82;66.14
40788;BME280;26497;52.494;7.546;2023-05-03T01:50:26;102320.03;;;5.87;66.15
40788;BME280;26497;52.494;7.546;2023-05-03T01:52:53;102320.72;;;5.83;66.14
40788;BME280;26497;52.494;7.546;2023-05-03T01:55:20;102318.91;;;5.82;66.16
40788;BME280;26497;52.494;7.546;2023-05-03T01:57:48;102321.75;;;5.67;66.64
40788;BME280;26497;52.494;7.546;2023-05-03T02:00:16;102324.28;;;5.65;66.87
40788;BME280;26497;52.494;7.546;2023-05-03T02:02:43;102320.13;;;5.88;65.90
40788;BME280;26497;52.494;7.546;2023-05-03T02:05:10;102316.41;;;6.03;65.49
40788;BME280;26497;52.494;7.546;2023-05-03T02:07:37;102317.78;;;5.95;65.68
40788;BME280;26497;52.494;7.546;2023-05-03T02:10:06;102315.44;;;5.81;65.70
40788;BME280;26497;52.494;7.546;2023-05-03T02:12:33;102321.66;;;5.65;65.91
40788;BME280;26497;52.494;7.546;2023-05-03T02:15:02;102327.53;;;5.59;66.21
40788;BME280;26497;52.494;7.546;2023-05-03T02:17:29;102329.03;;;5.54;66.07
40788;BME280;26497;52.494;7.546;2023-05-03T02:19:56;102322.66;;;5.49;66.02
40788;BME280;26497;52.494;7.546;2023-05-03T02:22:23;102325.28;;;5.49;66.01
40788;BME280;26497;52.494;7.546;2023-05-03T02:24:50;102325.16;;;5.46;66.01
40788;BME280;26497;52.494;7.546;2023-05-03T02:27:17;102327.53;;;5.41;66.20
40788;BME280;26497;52.494;7.546;2023-05-03T02:29:44;102327.38;;;5.38;66.26
40788;BME280;26497;52.494;7.546;2023-05-03T02:32:12;102333.28;;;5.34;66.44
40788;BME280;26497;52.494;7.546;2023-05-03T02:34:39;102335.31;;;5.40;66.35
40788;BME280;26497;52.494;7.546;2023-05-03T02:37:06;102334.56;;;5.42;66.31
40788;BME280;26497;52.494;7.546;2023-05-03T02:39:33;102329.16;;;5.39;66.46
40788;BME280;26497;52.494;7.546;2023-05-03T02:42:00;102342.94;;;5.35;66.42
40788;BME280;26497;52.494;7.546;2023-05-03T02:44:27;102339.50;;;5.36;66.82
40788;BME280;26497;52.494;7.546;2023-05-03T02:46:54;102334.50;;;5.41;66.26
40788;BME280;26497;52.494;7.546;2023-05-03T02:49:22;102337.78;;;5.37;66.14
40788;BME280;26497;52.494;7.546;2023-05-03T02:51:49;102324.47;;;5.32;66.19
40788;BME280;26497;52.494;7.546;2023-05-03T02:54:17;102327.78;;;5.28;66.54
40788;BME280;26497;52.494;7.546;2023-05-03T02:56:44;102323.25;;;5.24;66.62
40788;BME280;26497;52.494;7.546;2023-05-03T02:59:11;102321.59;;;5.26;66.46
40788;BME280;26497;52.494;7.546;2023-05-03T03:01:38;102319.78;;;5.25;66.23
40788;BME280;26497;52.494;7.546;2023-05-03T03:04:05;102323.25;;;5.43;66.34
40788;BME280;26497;52.494;7.546;2023-05-03T03:06:34;102315.53;;;5.65;65.94
40788;BME280;26497;52.494;7.546;2023-05-03T03:09:01;102319.47;;;5.74;65.43
40788;BME280;26497;52.494;7.546;2023-05-03T03:11:28;102313.22;;;5.71;64.94
40788;BME280;26497;52.494;7.546;2023-05-03T03:13:56;102312.13;;;5.47;65.99
40788;BME280;26497;52.494;7.546;2023-05-03T03:16:23;102308.19;;;5.38;65.42
40788;BME280;26497;52.494;7.546;2023-05-03T03:18:50;102306.16;;;5.32;65.25
40788;BME280;26497;52.494;7.546;2023-05-03T03:21:17;102291.06;;;5.26;65.29
40788;BME280;26497;52.494;7.546;2023-05-03T03:23:45;102294.50;;;5.25;65.21
40788;BME280;26497;52.494;7.546;2023-05-03T03:26:12;102286.53;;;5.22;65.34
40788;BME280;26497;52.494;7.546;2023-05-03T03:28:40;102292.72;;;5.24;65.65
40788;BME280;26497;52.494;7.546;2023-05-03T03:31:07;102292.13;;;5.30;65.78
40788;BME280;26497;52.494;7.546;2023-05-03T03:33:33;102292.25;;;5.33;65.33
40788;BME280;26497;52.494;7.546;2023-05-03T03:36:01;102290.19;;;5.26;65.62
40788;BME280;26497;52.494;7.546;2023-05-03T03:38:28;102295.50;;;5.27;65.46
40788;BME280;26497;52.494;7.546;2023-05-03T03:40:57;102302.31;;;5.24;65.11
40788;BME280;26497;52.494;7.546;2023-05-03T03:43:23;102296.69;;;5.16;65.18
40788;BME280;26497;52.494;7.546;2023-05-03T03:45:51;102298.63;;;5.20;66.39
40788;BME280;26497;52.494;7.546;2023-05-03T03:48:18;102295.50;;;5.27;66.11
40788;BME280;26497;52.494;7.546;2023-05-03T03:50:45;102296.91;;;5.39;66.38
40788;BME280;26497;52.494;7.546;2023-05-03T03:53:13;102288.66;;;5.49;66.14
40788;BME280;26497;52.494;7.546;2023-05-03T03:55:40;102284.59;;;5.56;66.02
40788;BME280;26497;52.494;7.546;2023-05-03T03:58:08;102288.78;;;5.52;65.95
40788;BME280;26497;52.494;7.546;2023-05-03T04:00:35;102282.59;;;5.50;66.03
40788;BME280;26497;52.494;7.546;2023-05-03T04:03:04;102292.44;;;5.56;66.30
40788;BME280;26497;52.494;7.546;2023-05-03T04:05:32;102288.94;;;5.55;66.20
40788;BME280;26497;52.494;7.546;2023-05-03T04:07:59;102287.00;;;5.51;66.35
40788;BME280;26497;52.494;7.546;2023-05-03T04:10:26;102293.88;;;5.49;66.37
40788;BME280;26497;52.494;7.546;2023-05-03T04:12:53;102289.38;;;5.46;67.16
40788;BME280;26497;52.494;7.546;2023-05-03T04:15:21;102291.47;;;5.54;67.18
40788;BME280;26497;52.494;7.546;2023-05-03T04:17:48;102284.69;;;5.77;66.71
40788;BME280;26497;52.494;7.546;2023-05-03T04:20:15;102281.47;;;6.02;65.32
40788;BME280;26497;52.494;7.546;2023-05-03T04:22:43;102281.19;;;6.16;64.88
40788;BME280;26497;52.494;7.546;2023-05-03T04:25:11;102282.03;;;5.97;66.21
40788;BME280;26497;52.494;7.546;2023-05-03T04:27:39;102281.47;;;6.02;67.01
40788;BME280;26497;52.494;7.546;2023-05-03T04:30:08;102281.63;;;6.27;68.30
40788;BME280;26497;52.494;7.546;2023-05-03T04:32:38;102291.78;;;6.60;69.69
40788;BME280;26497;52.494;7.546;2023-05-03T04:35:07;102287.22;;;6.98;68.50
40788;BME280;26497;52.494;7.546;2023-05-03T04:37:35;102292.50;;;7.21;68.28
40788;BME280;26497;52.494;7.546;2023-05-03T04:40:03;102290.88;;;7.25;68.25
40788;BME280;26497;52.494;7.546;2023-05-03T04:42:33;102294.63;;;7.31;68.65
40788;BME280;26497;52.494;7.546;2023-05-03T04:45:00;102307.75;;;7.31;68.64
40788;BME280;26497;52.494;7.546;2023-05-03T04:47:27;102306.91;;;7.32;68.46
40788;BME280;26497;52.494;7.546;2023-05-03T04:49:56;102316.00;;;7.41;69.86
40788;BME280;26497;52.494;7.546;2023-05-03T04:52:23;102318.44;;;7.81;72.97
40788;BME280;26497;52.494;7.546;2023-05-03T04:54:50;102318.69;;;8.62;76.38
40788;BME280;26497;52.494;7.546;2023-05-03T04:57:17;102334.69;;;9.80;78.73
40788;BME280;26497;52.494;7.546;2023-05-03T04:59:44;102325.38;;;10.90;78.74
40788;BME280;26497;52.494;7.546;2023-05-03T05:02:11;102324.06;;;11.91;77.46
40788;BME280;26497;52.494;7.546;2023-05-03T05:04:38;102314.41;;;12.87;75.18
40788;BME280;26497;52.494;7.546;2023-05-03T05:07:07;102317.56;;;13.84;71.39
40788;BME280;26497;52.494;7.546;2023-05-03T05:09:33;102318.38;;;14.62;67.76
40788;BME280;26497;52.494;7.546;2023-05-03T05:12:01;102318.81;;;15.07;63.04
40788;BME280;26497;52.494;7.546;2023-05-03T05:14:29;102321.50;;;15.13;60.93
40788;BME280;26497;52.494;7.546;2023-05-03T05:16:57;102330.44;;;15.27;60.22
40788;BME280;26497;52.494;7.546;2023-05-03T05:19:24;102319.13;;;15.66;59.40
40788;BME280;26497;52.494;7.546;2023-05-03T05:21:51;102329.13;;;16.16;58.25
40788;BME280;26497;52.494;7.546;2023-05-03T05:24:19;102334.53;;;16.71;55.18
40788;BME280;26497;52.494;7.546;2023-05-03T05:26:46;102329.19;;;17.37;52.14
40788;BME280;26497;52.494;7.546;2023-05-03T05:29:14;102332.53;;;18.02;48.55
40788;BME280;26497;52.494;7.546;2023-05-03T05:31:41;102331.25;;;18.63;46.42
40788;BME280;26497;52.494;7.546;2023-05-03T05:34:08;102338.59;;;19.41;42.84
40788;BME280;26497;52.494;7.546;2023-05-03T05:36:35;102332.41;;;20.09;38.66
40788;BME280;26497;52.494;7.546;2023-05-03T05:39:02;102333.31;;;20.68;36.83
40788;BME280;26497;52.494;7.546;2023-05-03T05:41:30;102325.97;;;21.32;35.85
40788;BME280;26497;52.494;7.546;2023-05-03T05:43:57;102323.16;;;21.86;33.71
40788;BME280;26497;52.494;7.546;2023-05-03T05:46:24;102332.13;;;22.24;33.14
40788;BME280;26497;52.494;7.546;2023-05-03T05:48:51;102336.91;;;22.11;34.64
40788;BME280;26497;52.494;7.546;2023-05-03T05:51:19;102343.53;;;21.50;34.60
40788;BME280;26497;52.494;7.546;2023-05-03T05:53:46;102336.81;;;20.73;34.64
40788;BME280;26497;52.494;7.546;2023-05-03T05:56:13;102346.16;;;19.81;35.98
40788;BME280;26497;52.494;7.546;2023-05-03T05:58:42;102348.00;;;18.84;37.67
40788;BME280;26497;52.494;7.546;2023-05-03T06:01:09;102353.94;;;17.84;38.73
40788;BME280;26497;52.494;7.546;2023-05-03T06:03:36;102355.00;;;17.01;41.51
40788;BME280;26497;52.494;7.546;2023-05-03T06:06:03;102352.28;;;16.61;43.95
40788;BME280;26497;52.494;7.546;2023-05-03T06:08:31;102357.56;;;16.27;44.61
40788;BME280;26497;52.494;7.546;2023-05-03T06:10:58;102348.50;;;15.83;42.18
40788;BME280;26497;52.494;7.546;2023-05-03T06:13:25;102362.69;;;15.82;44.41
40788;BME280;26497;52.494;7.546;2023-05-03T06:15:53;102361.88;;;15.94;44.75
40788;BME280;26497;52.494;7.546;2023-05-03T06:18:20;102352.84;;;15.68;45.49
40788;BME280;26497;52.494;7.546;2023-05-03T06:20:50;102352.78;;;15.56;46.50
40788;BME280;26497;52.494;7.546;2023-05-03T06:23:17;102357.41;;;15.89;48.35
40788;BME280;26497;52.494;7.546;2023-05-03T06:25:45;102352.31;;;17.17;47.11
40788;BME280;26497;52.494;7.546;2023-05-03T06:28:13;102351.63;;;18.78;45.88
40788;BME280;26497;52.494;7.546;2023-05-03T06:30:40;102356.09;;;20.42;40.84
40788;BME280;26497;52.494;7.546;2023-05-03T06:33:11;102352.16;;;21.67;37.05
40788;BME280;26497;52.494;7.546;2023-05-03T06:35:39;102353.88;;;22.90;34.63
40788;BME280;26497;52.494;7.546;2023-05-03T06:38:07;102349.72;;;24.09;32.17
40788;BME280;26497;52.494;7.546;2023-05-03T06:40:34;102354.91;;;24.99;30.11
40788;BME280;26497;52.494;7.546;2023-05-03T06:43:01;102356.19;;;25.89;29.77
40788;BME280;26497;52.494;7.546;2023-05-03T06:45:28;102353.75;;;26.51;28.03
40788;BME280;26497;52.494;7.546;2023-05-03T06:47:55;102352.09;;;27.14;26.17
40788;BME280;26497;52.494;7.546;2023-05-03T06:50:24;102355.00;;;27.50;24.57
40788;BME280;26497;52.494;7.546;2023-05-03T06:52:51;102348.34;;;27.77;24.32
40788;BME280;26497;52.494;7.546;2023-05-03T06:55:18;102347.59;;;28.13;23.01
40788;BME280;26497;52.494;7.546;2023-05-03T06:57:45;102347.09;;;28.42;22.19
40788;BME280;26497;52.494;7.546;2023-05-03T07:00:17;102345.69;;;28.52;21.28
40788;BME280;26497;52.494;7.546;2023-05-03T07:02:44;102345.09;;;28.28;21.36
40788;BME280;26497;52.494;7.546;2023-05-03T07:05:11;102346.84;;;28.29;20.41
40788;BME280;26497;52.494;7.546;2023-05-03T07:07:40;102355.19;;;28.24;19.64
40788;BME280;26497;52.494;7.546;2023-05-03T07:10:11;102345.44;;;28.39;19.11
40788;BME280;26497;52.494;7.546;2023-05-03T07:12:38;102349.38;;;28.68;19.42
40788;BME280;26497;52.494;7.546;2023-05-03T07:15:07;102350.72;;;28.79;18.84
40788;BME280;26497;52.494;7.546;2023-05-03T07:17:34;102347.16;;;28.22;18.52
40788;BME280;26497;52.494;7.546;2023-05-03T07:20:04;102348.56;;;26.46;19.92
40788;BME280;26497;52.494;7.546;2023-05-03T07:22:33;102350.78;;;24.04;21.23
40788;BME280;26497;52.494;7.546;2023-05-03T07:25:05;102353.88;;;22.13;23.08
40788;BME280;26497;52.494;7.546;2023-05-03T07:27:36;102354.13;;;21.57;24.91
40788;BME280;26497;52.494;7.546;2023-05-03T07:30:05;102351.19;;;21.22;25.98
40788;BME280;26497;52.494;7.546;2023-05-03T07:32:35;102358.00;;;20.91;25.47
40788;BME280;26497;52.494;7.546;2023-05-03T07:35:02;102341.28;;;20.74;26.16
40788;BME280;26497;52.494;7.546;2023-05-03T07:37:32;102336.38;;;20.46;26.23
40788;BME280;26497;52.494;7.546;2023-05-03T07:39:59;102342.97;;;20.23;27.07
40788;BME280;26497;52.494;7.546;2023-05-03T07:42:28;102345.09;;;19.96;27.48
40788;BME280;26497;52.494;7.546;2023-05-03T07:44:58;102343.50;;;21.03;26.64
40788;BME280;26497;52.494;7.546;2023-05-03T07:47:26;102335.31;;;22.42;25.13
40788;BME280;26497;52.494;7.546;2023-05-03T07:49:55;102331.06;;;22.33;24.52
40788;BME280;26497;52.494;7.546;2023-05-03T07:56:12;102320.09;;;22.01;24.82
40788;BME280;26497;52.494;7.546;2023-05-03T08:07:16;102320.19;;;22.37;24.86
40788;BME280;26497;52.494;7.546;2023-05-03T08:13:03;102316.69;;;25.12;21.15
40788;BME280;26497;52.494;7.546;2023-05-03T08:15:31;102308.81;;;23.95;22.04
40788;BME280;26497;52.494;7.546;2023-05-03T08:17:59;102315.09;;;22.64;23.87
40788;BME280;26497;52.494;7.546;2023-05-03T08:20:26;102322.44;;;21.76;25.19
40788;BME280;26497;52.494;7.546;2023-05-03T08:22:54;102322.91;;;21.05;26.22
40788;BME280;26497;52.494;7.546;2023-05-03T08:25:22;102334.13;;;21.26;26.34
40788;BME280;26497;52.494;7.546;2023-05-03T08:27:50;102331.03;;;21.92;25.33
40788;BME280;26497;52.494;7.546;2023-05-03T08:30:18;102339.53;;;21.72;25.02
40788;BME280;26497;52.494;7.546;2023-05-03T08:32:46;102344.28;;;22.41;25.25
40788;BME280;26497;52.494;7.546;2023-05-03T08:35:15;102338.91;;;23.48;24.57
40788;BME280;26497;52.494;7.546;2023-05-03T08:37:44;102337.91;;;23.52;23.61
40788;BME280;26497;52.494;7.546;2023-05-03T08:40:12;102329.16;;;23.75;23.79
40788;BME280;26497;52.494;7.546;2023-05-03T08:42:42;102334.50;;;23.77;23.09
40788;BME280;26497;52.494;7.546;2023-05-03T08:45:11;102335.56;;;23.05;23.25
40788;BME280;26497;52.494;7.546;2023-05-03T08:47:41;102333.44;;;22.83;23.76
40788;BME280;26497;52.494;7.546;2023-05-03T08:50:10;102328.72;;;24.21;24.01
40788;BME280;26497;52.494;7.546;2023-05-03T08:52:41;102330.13;;;25.64;21.72
40788;BME280;26497;52.494;7.546;2023-05-03T08:55:09;102329.94;;;25.92;21.28
40788;BME280;26497;52.494;7.546;2023-05-03T08:57:37;102319.50;;;25.34;21.30
40788;BME280;26497;52.494;7.546;2023-05-03T09:00:06;102314.38;;;24.47;22.03
40788;BME280;26497;52.494;7.546;2023-05-03T09:02:35;102318.31;;;23.47;23.49
40788;BME280;26497;52.494;7.546;2023-05-03T09:08:00;102305.19;;;22.66;24.91
40788;BME280;26497;52.494;7.546;2023-05-03T09:10:28;102312.63;;;23.88;23.07
40788;BME280;26497;52.494;7.546;2023-05-03T09:12:58;102308.09;;;25.00;21.89
40788;BME280;26497;52.494;7.546;2023-05-03T09:15:26;102308.00;;;26.24;20.52
40788;BME280;26497;52.494;7.546;2023-05-03T09:18:14;102293.59;;;27.70;19.90
40788;BME280;26497;52.494;7.546;2023-05-03T09:20:43;102293.59;;;28.98;18.96
40788;BME280;26497;52.494;7.546;2023-05-03T09:23:18;102295.19;;;29.36;17.23
40788;BME280;26497;52.494;7.546;2023-05-03T09:25:48;102297.03;;;29.02;18.02
40788;BME280;26497;52.494;7.546;2023-05-03T09:28:16;102299.88;;;29.83;18.01
40788;BME280;26497;52.494;7.546;2023-05-03T09:30:45;102298.13;;;29.82;16.58
40788;BME280;26497;52.494;7.546;2023-05-03T09:33:13;102299.69;;;29.70;18.01
40788;BME280;26497;52.494;7.546;2023-05-03T09:35:55;102295.84;;;29.75;17.29
40788;BME280;26497;52.494;7.546;2023-05-03T09:38:29;102309.22;;;29.46;17.30
40788;BME280;26497;52.494;7.546;2023-05-03T09:40:57;102304.41;;;29.33;17.47
40788;BME280;26497;52.494;7.546;2023-05-03T09:43:24;102304.00;;;29.41;17.72
40788;BME280;26497;52.494;7.546;2023-05-03T09:45:51;102293.97;;;29.75;16.61
40788;BME280;26497;52.494;7.546;2023-05-03T09:48:19;102297.97;;;30.18;16.55
40788;BME280;26497;52.494;7.546;2023-05-03T09:50:48;102290.13;;;29.95;17.04
40788;BME280;26497;52.494;7.546;2023-05-03T09:53:15;102284.63;;;29.81;17.06
40788;BME280;26497;52.494;7.546;2023-05-03T09:55:47;102289.31;;;29.27;17.09
40788;BME280;26497;52.494;7.546;2023-05-03T09:58:17;102277.91;;;29.21;17.66
40788;BME280;26497;52.494;7.546;2023-05-03T10:00:45;102277.69;;;29.59;17.21
40788;BME280;26497;52.494;7.546;2023-05-03T10:03:21;102274.75;;;29.94;16.71
40788;BME280;26497;52.494;7.546;2023-05-03T10:05:50;102290.97;;;29.48;17.39
40788;BME280;26497;52.494;7.546;2023-05-03T10:08:25;102289.06;;;29.32;18.44
40788;BME280;26497;52.494;7.546;2023-05-03T10:10:54;102283.78;;;29.47;17.17
40788;BME280;26497;52.494;7.546;2023-05-03T10:13:22;102286.94;;;29.21;18.38
40788;BME280;26497;52.494;7.546;2023-05-03T10:15:55;102278.47;;;29.61;17.28
40788;BME280;26497;52.494;7.546;2023-05-03T10:18:26;102281.94;;;30.43;17.06
40788;BME280;26497;52.494;7.546;2023-05-03T10:21:00;102263.28;;;30.52;17.05
40788;BME280;26497;52.494;7.546;2023-05-03T10:23:28;102267.56;;;30.56;16.71
40788;BME280;26497;52.494;7.546;2023-05-03T10:26:15;102263.19;;;30.84;16.56
40788;BME280;26497;52.494;7.546;2023-05-03T10:28:42;102255.53;;;30.76;15.87
40788;BME280;26497;52.494;7.546;2023-05-03T10:31:43;102252.09;;;30.42;17.14
40788;BME280;26497;52.494;7.546;2023-05-03T10:34:19;102257.28;;;30.77;16.78
40788;BME280;26497;52.494;7.546;2023-05-03T10:36:46;102255.94;;;30.84;16.53
40788;BME280;26497;52.494;7.546;2023-05-03T10:39:15;102251.63;;;30.80;16.52
40788;BME280;26497;52.494;7.546;2023-05-03T10:41:44;102249.84;;;30.65;16.70
40788;BME280;26497;52.494;7.546;2023-05-03T10:44:27;102251.16;;;31.02;16.72
40788;BME280;26497;52.494;7.546;2023-05-03T10:46:54;102248.50;;;30.72;16.16
40788;BME280;26497;52.494;7.546;2023-05-03T10:49:23;102245.94;;;29.43;17.74
40788;BME280;26497;52.494;7.546;2023-05-03T10:51:51;102243.91;;;29.13;18.09
40788;BME280;26497;52.494;7.546;2023-05-03T10:54:18;102252.09;;;29.63;18.22
40788;BME280;26497;52.494;7.546;2023-05-03T10:56:54;102257.28;;;30.00;17.50
40788;BME280;26497;52.494;7.546;2023-05-03T10:59:23;102254.81;;;30.11;17.04
40788;BME280;26497;52.494;7.546;2023-05-03T11:01:51;102255.94;;;30.07;17.30
40788;BME280;26497;52.494;7.546;2023-05-03T11:04:32;102261.75;;;30.01;17.99
40788;BME280;26497;52.494;7.546;2023-05-03T11:06:59;102247.56;;;30.26;17.02
40788;BME280;26497;52.494;7.546;2023-05-03T11:09:32;102251.44;;;30.53;17.04
40788;BME280;26497;52.494;7.546;2023-05-03T11:12:03;102248.44;;;30.57;16.55
40788;BME280;26497;52.494;7.546;2023-05-03T11:14:31;102242.97;;;30.73;16.09
40788;BME280;26497;52.494;7.546;2023-05-03T11:16:58;102238.22;;;30.47;16.64
40788;BME280;26497;52.494;7.546;2023-05-03T11:19:25;102247.34;;;29.67;16.71
40788;BME280;26497;52.494;7.546;2023-05-03T11:21:55;102234.25;;;29.90;17.22
40788;BME280;26497;52.494;7.546;2023-05-03T11:24:22;102229.06;;;30.17;16.42
40788;BME280;26497;52.494;7.546;2023-05-03T11:26:49;102234.25;;;30.22;17.04
40788;BME280;26497;52.494;7.546;2023-05-03T11:29:18;102230.44;;;29.78;18.30
40788;BME280;26497;52.494;7.546;2023-05-03T11:31:46;102235.78;;;29.29;19.27
40788;BME280;26497;52.494;7.546;2023-05-03T11:34:13;102240.81;;;29.04;19.63
40788;BME280;26497;52.494;7.546;2023-05-03T11:36:40;102242.75;;;28.66;17.70
40788;BME280;26497;52.494;7.546;2023-05-03T11:39:08;102238.69;;;28.40;18.05
40788;BME280;26497;52.494;7.546;2023-05-03T11:41:35;102233.09;;;28.43;17.60
40788;BME280;26497;52.494;7.546;2023-05-03T11:44:03;102227.97;;;28.54;18.18
40788;BME280;26497;52.494;7.546;2023-05-03T11:46:35;102227.16;;;28.70;18.60
40788;BME280;26497;52.494;7.546;2023-05-03T11:49:03;102224.81;;;28.46;19.62
40788;BME280;26497;52.494;7.546;2023-05-03T11:51:30;102235.59;;;27.92;19.09
40788;BME280;26497;52.494;7.546;2023-05-03T11:53:59;102227.38;;;28.13;18.50
40788;BME280;26497;52.494;7.546;2023-05-03T11:56:27;102234.59;;;27.94;18.96
40788;BME280;26497;52.494;7.546;2023-05-03T11:58:55;102226.88;;;28.23;18.94
40788;BME280;26497;52.494;7.546;2023-05-03T12:01:26;102230.06;;;27.17;19.47
40788;BME280;26497;52.494;7.546;2023-05-03T12:03:57;102214.91;;;28.08;18.37
40788;BME280;26497;52.494;7.546;2023-05-03T12:06:24;102216.47;;;28.49;19.54
40788;BME280;26497;52.494;7.546;2023-05-03T12:08:52;102221.56;;;28.73;18.08
40788;BME280;26497;52.494;7.546;2023-05-03T12:11:19;102211.19;;;28.99;17.87
40788;BME280;26497;52.494;7.546;2023-05-03T12:13:55;102219.13;;;29.20;18.72
40788;BME280;26497;52.494;7.546;2023-05-03T12:16:24;102217.25;;;29.04;17.75
40788;BME280;26497;52.494;7.546;2023-05-03T12:18:55;102213.59;;;28.70;17.89
40788;BME280;26497;52.494;7.546;2023-05-03T12:21:43;102208.41;;;29.01;17.82
40788;BME280;26497;52.494;7.546;2023-05-03T12:24:10;102202.16;;;29.32;17.36
40788;BME280;26497;52.494;7.546;2023-05-03T12:26:37;102201.13;;;29.51;16.66
40788;BME280;26497;52.494;7.546;2023-05-03T12:29:04;102199.00;;;29.40;17.31
40788;BME280;26497;52.494;7.546;2023-05-03T12:31:31;102197.75;;;29.29;17.47
40788;BME280;26497;52.494;7.546;2023-05-03T12:33:59;102199.84;;;29.24;17.71
40788;BME280;26497;52.494;7.546;2023-05-03T12:36:26;102198.34;;;29.68;16.75
40788;BME280;26497;52.494;7.546;2023-05-03T12:38:54;102194.44;;;29.89;16.66
40788;BME280;26497;52.494;7.546;2023-05-03T12:41:21;102187.16;;;29.89;17.63
40788;BME280;26497;52.494;7.546;2023-05-03T12:43:50;102189.00;;;30.05;17.72
40788;BME280;26497;52.494;7.546;2023-05-03T12:46:17;102186.06;;;30.24;17.94
40788;BME280;26497;52.494;7.546;2023-05-03T12:48:44;102182.41;;;30.39;17.74
40788;BME280;26497;52.494;7.546;2023-05-03T12:51:12;102183.47;;;30.82;15.55
40788;BME280;26497;52.494;7.546;2023-05-03T12:53:40;102173.16;;;30.27;17.30
40788;BME280;26497;52.494;7.546;2023-05-03T12:56:08;102164.31;;;30.83;16.07
40788;BME280;26497;52.494;7.546;2023-05-03T12:58:35;102165.31;;;30.37;16.69
40788;BME280;26497;52.494;7.546;2023-05-03T13:01:02;102176.78;;;30.12;17.02
40788;BME280;26497;52.494;7.546;2023-05-03T13:03:29;102170.66;;;30.39;17.05
40788;BME280;26497;52.494;7.546;2023-05-03T13:05:57;102163.63;;;30.94;16.64
40788;BME280;26497;52.494;7.546;2023-05-03T13:08:25;102164.50;;;30.66;17.64
40788;BME280;26497;52.494;7.546;2023-05-03T13:10:52;102155.84;;;30.88;16.45
40788;BME280;26497;52.494;7.546;2023-05-03T13:13:19;102160.22;;;30.91;16.24
40788;BME280;26497;52.494;7.546;2023-05-03T13:15:47;102150.38;;;31.02;16.60
40788;BME280;26497;52.494;7.546;2023-05-03T13:18:14;102145.34;;;30.96;15.75